Time;durP1;ratioP1;P1;durP2;ratioP2;P2;SDS_P1;SDS_P2;PMS_P1;PMS_P2;Temp;Humidity;BMP_temperature;BMP_pressure;BME280_temperature;BME280_humidity;BME280_pressure;Samples;Min_cycle;Max_cycle;Signal;HPM_P1;HPM_P2
2021/07/16 00:00:21;;;;;;;3.30;1.40;;;17.90;99.90;;;;;;5092562;28;20028;-62
2021/07/16 00:02:48;;;;;;;2.75;2.13;;;17.90;99.90;;;;;;5074199;28;20445;-63
2021/07/16 00:05:15;;;;;;;2.83;1.58;;;17.90;99.90;;;;;;5074357;28;20035;-63
2021/07/16 00:07:41;;;;;;;3.53;1.58;;;18.10;99.90;;;;;;5092716;28;20024;-63
2021/07/16 00:10:08;;;;;;;;;;;18.20;99.90;;;;;;5092940;28;20503;-63
2021/07/16 00:12:34;;;;;;;2.97;1.60;;;18.30;99.90;;;;;;5093396;28;20302;-63
2021/07/16 00:15:00;;;;;;;;;;;18.20;99.90;;;;;;5096587;28;20028;-62
2021/07/16 00:17:25;;;;;;;3.25;1.60;;;18.00;99.90;;;;;;5096183;28;20044;-63
2021/07/16 00:19:51;;;;;;;4.35;1.50;;;18.00;99.90;;;;;;5096104;28;20051;-64
2021/07/16 00:22:18;;;;;;;3.25;1.35;;;17.90;99.90;;;;;;5095828;28;20028;-63
2021/07/16 00:24:43;;;;;;;2.22;1.35;;;17.90;99.90;;;;;;5096371;28;20079;-63
2021/07/16 00:27:09;;;;;;;2.83;1.60;;;17.80;99.90;;;;;;5096132;28;20484;-63
2021/07/16 00:29:34;;;;;;;2.50;1.48;;;17.80;99.90;;;;;;5095873;28;20069;-63
2021/07/16 00:32:00;;;;;;;4.32;1.60;;;17.80;99.90;;;;;;5095768;28;20027;-63
2021/07/16 00:34:26;;;;;;;3.28;1.90;;;17.70;99.90;;;;;;5095891;28;20027;-63
2021/07/16 00:36:51;;;;;;;2.30;1.73;;;17.70;99.90;;;;;;5077715;28;20016;-63
2021/07/16 00:39:17;;;;;;;3.33;1.65;;;17.80;99.90;;;;;;5077393;28;20115;-63
2021/07/16 00:41:43;;;;;;;3.17;1.95;;;18.00;99.90;;;;;;5095673;28;20054;-63
2021/07/16 00:44:08;;;;;;;4.95;1.80;;;18.10;99.90;;;;;;5077223;28;20035;-63
2021/07/16 00:46:34;;;;;;;3.63;1.70;;;18.00;99.90;;;;;;5095676;28;20085;-62
2021/07/16 00:49:00;;;;;;;2.17;1.55;;;17.80;99.90;;;;;;5096026;28;20031;-63
2021/07/16 00:51:25;;;;;;;3.25;1.45;;;17.70;99.90;;;;;;5095773;28;20074;-63
2021/07/16 00:53:51;;;;;;;2.10;1.58;;;17.60;99.90;;;;;;5077269;28;20030;-64
2021/07/16 00:56:17;;;;;;;3.75;1.70;;;17.50;99.90;;;;;;5095429;28;20032;-63
2021/07/16 00:58:43;;;;;;;5.38;1.63;;;17.50;99.90;;;;;;5095491;28;20048;-63
2021/07/16 01:01:09;;;;;;;8.32;2.22;;;17.50;99.90;;;;;;5095836;28;20344;-63
2021/07/16 01:03:34;;;;;;;4.72;1.98;;;17.40;99.90;;;;;;5095007;28;20061;-62
2021/07/16 01:06:02;;;;;;;2.78;1.73;;;17.50;99.90;;;;;;5095363;28;20146;-63
2021/07/16 01:08:28;;;;;;;3.25;1.55;;;17.40;99.90;;;;;;5095192;28;20384;-63
2021/07/16 01:10:55;;;;;;;4.45;1.48;;;17.40;99.90;;;;;;5095370;28;20047;-63
2021/07/16 01:13:21;;;;;;;2.22;1.60;;;17.40;99.90;;;;;;5077148;28;20028;-63
2021/07/16 01:15:46;;;;;;;5.47;1.70;;;17.40;99.90;;;;;;5094995;28;20438;-62
2021/07/16 01:18:12;;;;;;;4.07;1.88;;;17.40;99.90;;;;;;5095394;28;20464;-63
2021/07/16 01:20:38;;;;;;;2.00;1.48;;;17.40;99.90;;;;;;5095094;28;20024;-63
2021/07/16 01:23:30;;;;;;;5.22;1.63;;;17.40;99.90;;;;;;5076894;28;20035;-63
2021/07/16 01:25:56;;;;;;;4.00;1.40;;;17.40;99.90;;;;;;5091771;28;20028;-63
2021/07/16 01:28:22;;;;;;;2.60;1.50;;;17.80;99.90;;;;;;5094773;28;20361;-62
2021/07/16 01:30:51;;;;;;;2.90;1.33;;;17.80;99.90;;;;;;5095008;28;20456;-63
2021/07/16 01:33:18;;;;;;;7.75;2.03;;;17.80;99.90;;;;;;5095308;28;20032;-64
2021/07/16 01:35:44;;;;;;;2.58;1.50;;;17.80;99.90;;;;;;5095203;28;20099;-62
2021/07/16 01:38:10;;;;;;;3.80;1.52;;;17.90;99.90;;;;;;5076368;28;20078;-62
2021/07/16 01:40:37;;;;;;;3.03;1.65;;;17.90;99.90;;;;;;5094542;28;20039;-62
2021/07/16 01:43:04;;;;;;;7.00;2.00;;;17.90;99.90;;;;;;5094323;28;20024;-63
2021/07/16 01:45:33;;;;;;;3.53;1.45;;;17.90;99.90;;;;;;5094712;28;20526;-63
2021/07/16 01:48:02;;;;;;;1.73;1.30;;;17.90;99.90;;;;;;5076522;28;20020;-63
2021/07/16 01:50:29;;;;;;;3.00;1.30;;;17.90;99.90;;;;;;5076429;28;20494;-63
2021/07/16 01:52:55;;;;;;;2.67;1.70;;;17.80;99.90;;;;;;5094524;28;20380;-63
2021/07/16 01:55:23;;;;;;;3.70;1.50;;;17.80;99.90;;;;;;5094313;28;20028;-63
2021/07/16 01:57:51;;;;;;;2.25;1.40;;;17.70;99.90;;;;;;5094045;28;20485;-62
2021/07/16 02:00:22;;;;;;;4.18;1.35;;;17.70;99.90;;;;;;5094104;28;20024;-63
2021/07/16 02:02:56;;;;;;;5.03;1.80;;;17.80;99.90;;;;;;5094181;28;20095;-63
2021/07/16 02:05:22;;;;;;;2.92;1.48;;;17.80;99.90;;;;;;5094147;28;20047;-63
2021/07/16 02:07:50;;;;;;;2.42;1.33;;;17.80;99.90;;;;;;5094165;28;20516;-62
2021/07/16 02:10:17;;;;;;;2.92;1.40;;;17.80;99.90;;;;;;5094055;28;20028;-63
2021/07/16 02:12:43;;;;;;;4.43;1.77;;;17.80;99.90;;;;;;5094028;28;20028;-64
2021/07/16 02:15:20;;;;;;;2.65;1.45;;;17.90;99.90;;;;;;5094381;28;20498;-63
2021/07/16 02:17:47;;;;;;;2.20;1.42;;;17.80;99.90;;;;;;5094317;28;20422;-64
2021/07/16 02:20:19;;;;;;;3.28;2.05;;;17.80;99.90;;;;;;5094351;28;20358;-63
2021/07/16 02:22:45;;;;;;;3.63;1.70;;;17.80;99.90;;;;;;5094253;28;20050;-63
2021/07/16 02:25:12;;;;;;;2.90;1.35;;;17.80;99.90;;;;;;5094366;28;20376;-63
2021/07/16 02:27:38;;;;;;;1.92;1.40;;;17.80;99.90;;;;;;5094177;28;20100;-63
2021/07/16 02:30:07;;;;;;;3.13;1.42;;;17.70;99.90;;;;;;5093807;28;20043;-63
2021/07/16 02:32:34;;;;;;;3.40;1.60;;;17.60;99.90;;;;;;5094198;28;20103;-64
2021/07/16 02:35:00;;;;;;;5.90;1.80;;;17.60;99.90;;;;;;5093740;28;20032;-63
2021/07/16 02:37:25;;;;;;;5.47;1.77;;;17.60;99.90;;;;;;5092953;28;20032;-63
2021/07/16 02:39:51;;;;;;;3.40;1.67;;;17.60;99.90;;;;;;5093614;28;20095;-62
2021/07/16 02:42:16;;;;;;;4.28;1.90;;;17.60;99.90;;;;;;5093067;28;20392;-63
2021/07/16 02:44:42;;;;;;;2.95;1.58;;;17.60;99.90;;;;;;5093647;28;20039;-62
2021/07/16 02:47:08;;;;;;;2.65;1.65;;;17.60;99.90;;;;;;5093695;28;20020;-63
2021/07/16 02:49:33;;;;;;;1.48;1.38;;;17.50;99.90;;;;;;5093126;28;20024;-63
2021/07/16 02:51:59;;;;;;;4.20;1.48;;;17.40;99.90;;;;;;5093238;28;20016;-62
2021/07/16 02:54:24;;;;;;;3.47;1.65;;;17.40;99.90;;;;;;5093289;28;20032;-62
2021/07/16 02:56:50;;;;;;;3.47;1.50;;;17.40;99.90;;;;;;5093355;28;20380;-62
2021/07/16 02:59:15;;;;;;;4.70;1.70;;;17.40;99.90;;;;;;5094387;28;20032;-62
2021/07/16 03:01:57;;;;;;;5.25;1.73;;;17.30;99.90;;;;;;5093507;28;20036;-62
2021/07/16 03:04:23;;;;;;;4.18;2.03;;;17.30;99.90;;;;;;5093263;28;20024;-62
2021/07/16 03:06:49;;;;;;;4.85;2.10;;;17.30;99.90;;;;;;5093263;28;20031;-62
2021/07/16 03:09:16;;;;;;;5.70;2.50;;;17.30;99.90;;;;;;5093359;28;20450;-63
2021/07/16 03:11:41;;;;;;;5.22;2.60;;;17.30;99.90;;;;;;5093004;28;20024;-62
2021/07/16 03:14:07;;;;;;;4.47;2.40;;;17.30;99.90;;;;;;5074826;28;20172;-62
2021/07/16 03:16:33;;;;;;;3.70;1.90;;;17.30;99.90;;;;;;5074646;28;20161;-62
2021/07/16 03:19:00;;;;;;;3.28;1.70;;;17.40;99.90;;;;;;5093041;28;20028;-63
2021/07/16 03:21:26;;;;;;;3.17;2.20;;;17.40;99.90;;;;;;5092925;28;20499;-62
2021/07/16 03:23:51;;;;;;;3.75;2.10;;;17.50;99.90;;;;;;5092745;28;20028;-63
2021/07/16 03:26:17;;;;;;;3.35;2.40;;;17.50;99.90;;;;;;5092965;28;20027;-62
2021/07/16 03:28:43;;;;;;;7.55;2.30;;;17.50;99.90;;;;;;5093074;28;20385;-62
2021/07/16 03:31:09;;;;;;;5.50;2.38;;;17.50;99.90;;;;;;5074888;28;20035;-62
2021/07/16 03:33:35;;;;;;;4.40;2.70;;;17.50;99.90;;;;;;5092887;28;20043;-63
2021/07/16 03:36:00;;;;;;;;;;;17.60;99.90;;;;;;5093413;28;20447;-63
2021/07/16 03:38:26;;;;;;;7.75;2.70;;;17.60;99.90;;;;;;5074716;28;19944;-63
2021/07/16 03:40:54;;;;;;;5.55;2.78;;;17.60;99.90;;;;;;5092622;28;20034;-63
2021/07/16 03:43:19;;;;;;;6.35;3.45;;;17.70;99.90;;;;;;5092615;28;20024;-63
2021/07/16 03:45:45;;;;;;;13.05;5.43;;;17.70;99.90;;;;;;5093240;28;20028;-64
2021/07/16 03:48:11;;;;;;;9.95;5.10;;;17.80;99.90;;;;;;5076884;28;20033;-63
2021/07/16 03:50:36;;;;;;;10.48;6.10;;;17.80;99.90;;;;;;5096947;28;20074;-63
2021/07/16 03:53:03;;;;;;;11.50;6.30;;;17.80;99.90;;;;;;5096731;28;20036;-62
2021/07/16 03:55:29;;;;;;;9.82;6.50;;;17.80;99.90;;;;;;5078447;28;20115;-63
2021/07/16 03:57:55;;;;;;;10.52;6.15;;;17.90;99.90;;;;;;5096562;28;20078;-62
2021/07/16 04:00:26;;;;;;;10.63;5.90;;;18.00;99.90;;;;;;5096810;28;20158;-63
2021/07/16 04:02:52;;;;;;;8.88;5.45;;;18.00;99.90;;;;;;5096511;28;20040;-64
2021/07/16 04:05:18;;;;;;;7.50;6.10;;;17.90;99.90;;;;;;5096664;28;20107;-63
2021/07/16 04:07:47;;;;;;;9.73;6.18;;;17.90;99.90;;;;;;5096376;28;20109;-62
2021/07/16 04:10:21;;;;;;;13.80;5.68;;;17.90;99.90;;;;;;5078359;28;20019;-63
2021/07/16 04:12:57;;;;;;;8.18;5.57;;;17.90;99.90;;;;;;5096448;28;20024;-63
2021/07/16 04:15:26;;;;;;;7.78;5.43;;;18.00;99.90;;;;;;5096938;28;20107;-63
2021/07/16 04:17:56;;;;;;;5.85;4.80;;;18.00;99.90;;;;;;5096404;28;20031;-62
2021/07/16 04:20:23;;;;;;;10.65;4.60;;;18.00;99.90;;;;;;5078275;28;20027;-64
2021/07/16 04:22:49;;;;;;;8.95;4.38;;;18.10;99.90;;;;;;5096291;28;20032;-64
2021/07/16 04:25:19;;;;;;;10.25;4.85;;;18.10;99.90;;;;;;5096152;28;20016;-63
2021/07/16 04:27:49;;;;;;;7.90;5.30;;;18.10;99.90;;;;;;5096380;28;20419;-63
2021/07/16 04:30:17;;;;;;;8.15;5.65;;;18.20;99.90;;;;;;5096286;28;20097;-63
2021/07/16 04:32:43;;;;;;;10.13;5.50;;;18.20;99.90;;;;;;5096163;28;20042;-64
2021/07/16 04:35:14;;;;;;;6.22;5.32;;;18.20;99.90;;;;;;5077899;28;20498;-63
2021/07/16 04:37:41;;;;;;;8.65;4.88;;;18.10;99.90;;;;;;5077719;28;20028;-62
2021/07/16 04:40:10;;;;;;;7.53;4.97;;;18.10;99.90;;;;;;5077673;28;20036;-63
2021/07/16 04:42:36;;;;;;;8.38;5.43;;;18.10;99.90;;;;;;5095596;28;20031;-63
2021/07/16 04:45:02;;;;;;;7.28;5.47;;;18.20;99.90;;;;;;5077810;28;20028;-63
2021/07/16 04:47:28;;;;;;;10.90;5.32;;;18.20;99.90;;;;;;5096136;28;20112;-64
2021/07/16 04:49:53;;;;;;;7.85;5.40;;;18.20;99.90;;;;;;5096019;28;20069;-64
2021/07/16 04:52:20;;;;;;;7.68;4.53;;;18.20;99.90;;;;;;5095971;28;20035;-63
2021/07/16 04:54:45;;;;;;;;;;;18.20;99.90;;;;;;5096467;28;20020;-63
2021/07/16 04:57:11;;;;;;;9.35;5.93;;;18.30;99.90;;;;;;5095457;28;19910;-63
2021/07/16 04:59:38;;;;;;;10.18;5.63;;;18.30;99.90;;;;;;5076028;28;20020;-63
2021/07/16 05:02:04;;;;;;;11.40;6.18;;;18.30;99.90;;;;;;5097275;28;20043;-62
2021/07/16 05:04:29;;;;;;;;;;;18.30;99.90;;;;;;5095520;28;20055;-63
2021/07/16 05:06:55;;;;;;;12.35;7.40;;;18.20;99.90;;;;;;5095029;28;19904;-63
2021/07/16 05:09:21;;;;;;;13.52;8.40;;;18.20;99.90;;;;;;5095128;28;20468;-62
2021/07/16 05:11:47;;;;;;;14.38;8.45;;;18.20;99.90;;;;;;5095199;28;20052;-62
2021/07/16 05:14:13;;;;;;;13.75;8.68;;;18.20;99.90;;;;;;5094956;28;20059;-62
2021/07/16 05:16:38;;;;;;;12.52;9.43;;;18.20;99.90;;;;;;5095303;28;20028;-61
2021/07/16 05:19:04;;;;;;;16.15;10.52;;;18.20;99.90;;;;;;5095126;28;20032;-66
2021/07/16 05:21:32;;;;;;;15.20;9.65;;;18.10;99.90;;;;;;5094757;28;20028;-64
2021/07/16 05:23:57;;;;;;;13.80;10.00;;;18.10;99.90;;;;;;5094975;28;20095;-66
2021/07/16 05:26:23;;;;;;;17.35;10.35;;;18.10;99.90;;;;;;5076607;28;20059;-65
2021/07/16 05:28:49;;;;;;;13.07;10.43;;;18.10;99.90;;;;;;5095214;28;20040;-65
2021/07/16 05:31:16;;;;;;;14.82;10.52;;;18.10;99.90;;;;;;5094688;28;20511;-66
2021/07/16 05:33:42;;;;;;;14.45;10.95;;;18.10;99.90;;;;;;5094377;28;20055;-63
2021/07/16 05:36:08;;;;;;;15.63;11.18;;;18.10;99.90;;;;;;5094345;28;20173;-63
2021/07/16 05:38:34;;;;;;;15.95;10.68;;;18.20;99.90;;;;;;5094423;28;20032;-62
2021/07/16 05:41:00;;;;;;;11.75;9.88;;;18.20;99.90;;;;;;5094275;28;20031;-63
2021/07/16 05:43:26;;;;;;;13.68;9.73;;;18.30;99.90;;;;;;5094565;28;20039;-63
2021/07/16 05:45:52;;;;;;;15.60;10.60;;;18.30;99.90;;;;;;5094203;28;20016;-63
2021/07/16 05:48:17;;;;;;;11.07;8.98;;;18.50;99.90;;;;;;5093413;28;20032;-63
2021/07/16 05:50:46;;;;;;;12.70;9.15;;;18.60;99.90;;;;;;5092848;28;20024;-63
2021/07/16 05:53:12;;;;;;;13.32;9.35;;;18.60;99.90;;;;;;5094391;28;20035;-63
2021/07/16 05:55:38;;;;;;;11.05;8.95;;;18.70;99.90;;;;;;5094418;28;20024;-63
2021/07/16 05:58:04;;;;;;;11.70;9.00;;;18.70;99.90;;;;;;5094057;28;20515;-63
2021/07/16 06:00:30;;;;;;;11.02;8.38;;;18.90;99.90;;;;;;5094399;28;20031;-63
2021/07/16 06:02:56;;;;;;;11.38;9.15;;;18.80;99.90;;;;;;5094501;28;20032;-63
2021/07/16 06:05:22;;;;;;;10.43;8.38;;;18.80;99.90;;;;;;5094410;28;20342;-63
2021/07/16 06:07:48;;;;;;;12.35;8.70;;;18.80;99.90;;;;;;5094110;28;20020;-63
2021/07/16 06:10:14;;;;;;;10.15;8.35;;;18.80;99.90;;;;;;5075579;28;20027;-63
2021/07/16 06:12:40;;;;;;;13.18;9.15;;;18.90;99.90;;;;;;5093678;28;20052;-63
2021/07/16 06:15:07;;;;;;;11.18;7.65;;;19.00;99.90;;;;;;5093948;28;20093;-63
2021/07/16 06:17:33;;;;;;;9.40;8.13;;;19.10;99.90;;;;;;5093636;28;20496;-63
2021/07/16 06:19:59;;;;;;;15.50;10.00;;;19.30;99.90;;;;;;5093531;28;20035;-63
2021/07/16 06:22:25;;;;;;;;;;;19.40;99.90;;;;;;5093617;28;20424;-63
2021/07/16 06:24:51;;;;;;;13.50;9.15;;;19.50;99.90;;;;;;5093934;28;20037;-64
2021/07/16 06:27:17;;;;;;;;;;;19.60;99.90;;;;;;5094289;28;20035;-63
2021/07/16 06:29:43;;;;;;;12.40;9.10;;;19.60;99.90;;;;;;5093447;28;19904;-63
2021/07/16 06:32:08;;;;;;;16.65;8.75;;;19.80;99.90;;;;;;5093447;28;20498;-63
2021/07/16 06:34:34;;;;;;;12.32;8.52;;;20.00;99.90;;;;;;5093190;28;20059;-63
2021/07/16 06:37:00;;;;;;;11.13;8.13;;;20.20;99.90;;;;;;5093129;28;20055;-64
2021/07/16 06:39:25;;;;;;;18.05;8.20;;;20.40;99.90;;;;;;5093159;28;20024;-63
2021/07/16 06:41:51;;;;;;;14.45;7.28;;;20.50;99.90;;;;;;5093084;28;20020;-63
2021/07/16 06:44:17;;;;;;;15.50;7.55;;;20.60;99.90;;;;;;5092545;28;20437;-63
2021/07/16 06:46:43;;;;;;;11.63;8.00;;;20.80;99.90;;;;;;5092647;28;20020;-64
2021/07/16 06:49:09;;;;;;;13.13;7.78;;;20.90;99.90;;;;;;5092838;28;20024;-64
2021/07/16 06:51:35;;;;;;;15.75;8.10;;;21.20;99.90;;;;;;5092577;28;20027;-64
2021/07/16 06:54:02;;;;;;;;;;;21.30;99.90;;;;;;5092892;28;20028;-63
2021/07/16 06:56:29;;;;;;;9.85;7.63;;;21.40;99.90;;;;;;5092946;28;20002;-63
2021/07/16 06:58:54;;;;;;;9.80;7.85;;;21.50;99.90;;;;;;5092726;28;20102;-63
2021/07/16 07:01:20;;;;;;;8.55;6.82;;;21.40;99.90;;;;;;5093223;28;20101;-63
2021/07/16 07:03:46;;;;;;;;;;;21.30;99.90;;;;;;5093460;28;20146;-63
2021/07/16 07:06:12;;;;;;;12.00;7.28;;;21.30;99.90;;;;;;5093209;28;19961;-63
2021/07/16 07:08:38;;;;;;;13.02;8.63;;;21.40;99.90;;;;;;5092636;28;20020;-62
2021/07/16 07:11:05;;;;;;;13.95;8.90;;;21.50;99.90;;;;;;5093246;28;20025;-64
2021/07/16 07:13:31;;;;;;;15.32;8.32;;;21.70;99.90;;;;;;5074815;28;20020;-64
2021/07/16 07:15:56;;;;;;;9.68;7.43;;;21.90;99.90;;;;;;5093261;28;20082;-64
2021/07/16 07:18:22;;;;;;;11.88;7.72;;;22.00;99.90;;;;;;5093018;28;20030;-63
2021/07/16 07:20:47;;;;;;;13.35;6.95;;;22.00;99.90;;;;;;5075230;28;20043;-64
2021/07/16 07:23:13;;;;;;;8.73;6.40;;;21.90;99.90;;;;;;5095373;28;20039;-64
2021/07/16 07:25:39;;;;;;;13.15;8.25;;;21.70;99.90;;;;;;5097544;28;20020;-63
2021/07/16 07:28:05;;;;;;;11.25;6.72;;;21.50;99.90;;;;;;5097133;28;20074;-63
2021/07/16 07:30:30;;;;;;;;;;;21.40;99.90;;;;;;5097546;28;20107;-63
2021/07/16 07:32:56;;;;;;;9.40;6.22;;;21.50;99.90;;;;;;5096701;28;19967;-64
2021/07/16 07:35:22;;;;;;;8.73;5.70;;;21.50;99.90;;;;;;5096710;28;20031;-64
2021/07/16 07:37:48;;;;;;;7.88;6.20;;;21.70;99.90;;;;;;5096961;28;20035;-64
2021/07/16 07:40:14;;;;;;;;;;;21.90;99.90;;;;;;5097102;28;20043;-64
2021/07/16 07:42:40;;;;;;;7.80;5.35;;;22.30;99.90;;;;;;5096660;28;19918;-64
2021/07/16 07:45:08;;;;;;;7.10;5.10;;;22.50;99.90;;;;;;5097135;28;20024;-62
2021/07/16 07:47:34;;;;;;;6.53;4.25;;;22.60;99.90;;;;;;5097146;28;20441;-65
2021/07/16 07:50:02;;;;;;;7.18;4.40;;;22.70;99.90;;;;;;5096979;28;20017;-64
2021/07/16 07:52:28;;;;;;;6.25;4.63;;;22.60;99.90;;;;;;5096583;28;20099;-64
2021/07/16 07:54:54;;;;;;;;;;;22.40;99.90;;;;;;5078751;28;20051;-63
2021/07/16 07:57:19;;;;;;;9.68;4.68;;;22.40;99.90;;;;;;5096479;28;19923;-63
2021/07/16 07:59:45;;;;;;;4.90;4.32;;;22.30;99.90;;;;;;5096408;28;20023;-63
2021/07/16 08:02:11;;;;;;;5.25;4.75;;;22.30;99.90;;;;;;5096575;28;20338;-63
2021/07/16 08:04:38;;;;;;;5.38;3.60;;;22.20;99.90;;;;;;5078158;28;20093;-64
2021/07/16 08:07:07;;;;;;;5.07;4.57;;;22.30;99.90;;;;;;5096414;28;20028;-63
2021/07/16 08:09:33;;;;;;;4.03;3.40;;;22.30;99.90;;;;;;5096383;28;20465;-64
2021/07/16 08:11:59;;;;;;;4.13;3.72;;;22.50;99.90;;;;;;5096092;28;20509;-63
2021/07/16 08:14:25;;;;;;;4.85;3.53;;;22.80;99.90;;;;;;5096088;28;20100;-63
2021/07/16 08:16:50;;;;;;;6.80;5.00;;;23.30;99.90;;;;;;5096312;28;20074;-64
2021/07/16 08:19:17;;;;;;;;;;;24.40;99.90;;;;;;5096602;28;20060;-63
2021/07/16 08:21:53;;;;;;;6.50;2.87;;;25.50;99.90;;;;;;5096386;28;19948;-63
2021/07/16 08:24:20;;;;;;;4.30;2.67;;;26.60;99.90;;;;;;5096044;28;20036;-63
2021/07/16 08:26:46;;;;;;;6.03;3.33;;;26.60;99.90;;;;;;5096315;28;20103;-61
2021/07/16 08:29:13;;;;;;;14.10;3.60;;;26.20;99.90;;;;;;5096363;28;20157;-64
2021/07/16 08:31:40;;;;;;;9.13;4.78;;;25.60;99.90;;;;;;5077360;28;20028;-64
2021/07/16 08:34:06;;;;;;;5.18;3.42;;;25.30;99.90;;;;;;5095558;28;20032;-63
2021/07/16 08:36:32;;;;;;;7.30;3.78;;;24.90;99.90;;;;;;5096050;28;20048;-64
2021/07/16 08:38:58;;;;;;;;;;;24.60;99.90;;;;;;5096020;28;20457;-64
2021/07/16 08:41:24;;;;;;;3.67;2.90;;;25.60;99.90;;;;;;5095774;28;19908;-64
2021/07/16 08:43:51;;;;;;;4.38;3.20;;;27.50;99.90;;;;;;5095399;28;20039;-64
2021/07/16 08:46:17;;;;;;;4.85;2.90;;;29.30;98.00;;;;;;5095404;28;20435;-64
2021/07/16 08:48:47;;;;;;;3.58;2.90;;;31.20;95.60;;;;;;5095453;28;20016;-64
2021/07/16 08:51:16;;;;;;;2.78;2.20;;;33.20;92.30;;;;;;5095755;28;20016;-64
2021/07/16 08:53:41;;;;;;;3.63;2.90;;;34.10;85.80;;;;;;5095013;28;20020;-64
2021/07/16 08:56:08;;;;;;;5.13;2.70;;;33.20;85.20;;;;;;5095454;28;20402;-63
2021/07/16 08:58:34;;;;;;;3.72;2.42;;;31.80;85.50;;;;;;5094993;28;20024;-63
2021/07/16 09:00:59;;;;;;;6.55;2.80;;;30.50;89.00;;;;;;5095384;28;20059;-64
2021/07/16 09:03:25;;;;;;;3.28;2.60;;;31.80;88.20;;;;;;5094983;28;20067;-64
2021/07/16 09:05:51;;;;;;;2.50;2.30;;;33.40;84.30;;;;;;5095051;28;20027;-64
2021/07/16 09:08:21;;;;;;;5.88;2.10;;;34.20;81.20;;;;;;5094817;28;20527;-64
2021/07/16 09:10:53;;;;;;;2.20;1.92;;;33.90;79.60;;;;;;5076515;28;20023;-64
2021/07/16 09:13:19;;;;;;;4.35;1.83;;;34.10;78.50;;;;;;5094600;28;20020;-64
2021/07/16 09:15:57;;;;;;;2.35;2.03;;;35.20;76.50;;;;;;5094981;28;20465;-64
2021/07/16 09:18:23;;;;;;;3.78;1.95;;;35.60;74.20;;;;;;5094678;28;20404;-64
2021/07/16 09:21:05;;;;;;;3.28;2.10;;;34.80;73.10;;;;;;5076579;28;20031;-64
2021/07/16 09:23:47;;;;;;;2.25;1.70;;;34.00;74.70;;;;;;5094375;28;20032;-64
2021/07/16 09:26:15;;;;;;;4.28;2.08;;;34.40;74.40;;;;;;5094785;28;20058;-64
2021/07/16 09:28:43;;;;;;;2.30;2.10;;;34.30;72.60;;;;;;5094376;28;20092;-63
2021/07/16 09:31:10;;;;;;;5.00;2.00;;;32.80;74.30;;;;;;5094452;28;20028;-63
2021/07/16 09:33:47;;;;;;;7.78;2.70;;;31.80;77.70;;;;;;5094542;28;20427;-63
2021/07/16 09:36:23;;;;;;;2.10;1.90;;;31.60;77.70;;;;;;5094855;28;20020;-63
2021/07/16 09:38:53;;;;;;;3.55;2.03;;;30.40;79.60;;;;;;5094309;28;20024;-64
2021/07/16 09:41:18;;;;;;;2.40;2.10;;;29.00;83.00;;;;;;5094843;28;20024;-63
2021/07/16 09:43:49;;;;;;;4.60;2.38;;;27.80;85.90;;;;;;5093899;28;20092;-62
2021/07/16 09:46:15;;;;;;;2.17;1.98;;;28.70;86.20;;;;;;5093435;28;20016;-63
2021/07/16 09:48:44;;;;;;;2.08;1.80;;;29.90;83.50;;;;;;5093931;28;20023;-64
2021/07/16 09:51:27;;;;;;;2.83;1.80;;;32.00;79.70;;;;;;5094210;28;20468;-64
2021/07/16 09:54:03;;;;;;;2.47;2.00;;;33.80;76.00;;;;;;5093847;28;20028;-64
2021/07/16 09:56:33;;;;;;;4.03;2.35;;;34.40;75.20;;;;;;5094420;28;20120;-64
2021/07/16 09:59:06;;;;;;;3.15;2.35;;;34.10;74.40;;;;;;5094341;28;20044;-63
2021/07/16 10:01:34;;;;;;;3.00;2.10;;;33.30;75.10;;;;;;5094106;28;20021;-63
2021/07/16 10:04:08;;;;;;;2.55;2.35;;;32.30;77.90;;;;;;5093674;28;20024;-63
2021/07/16 10:06:34;;;;;;;4.03;2.00;;;31.70;77.60;;;;;;5094136;28;20016;-64
2021/07/16 10:08:59;;;;;;;3.13;2.30;;;31.60;78.60;;;;;;5094075;28;20027;-63
2021/07/16 10:11:27;;;;;;;4.05;2.35;;;31.30;78.50;;;;;;5093813;28;20020;-63
2021/07/16 10:13:56;;;;;;;2.42;2.22;;;31.30;79.30;;;;;;5093742;28;20047;-63
2021/07/16 10:16:22;;;;;;;3.65;2.30;;;32.50;76.80;;;;;;5094493;28;20024;-64
2021/07/16 10:18:51;;;;;;;3.13;2.25;;;33.30;75.40;;;;;;5094426;28;20036;-64
2021/07/16 10:21:19;;;;;;;5.15;2.45;;;32.60;75.40;;;;;;5094432;28;20024;-65
2021/07/16 10:23:45;;;;;;;6.53;3.17;;;31.60;77.00;;;;;;5094573;28;20032;-64
2021/07/16 10:26:12;;;;;;;2.45;2.20;;;31.70;77.90;;;;;;5093708;28;20047;-64
2021/07/16 10:28:41;;;;;;;3.88;2.40;;;32.80;75.60;;;;;;5093774;28;20107;-64
2021/07/16 10:31:37;;;;;;;3.42;2.00;;;33.30;75.40;;;;;;5093624;28;20099;-64
2021/07/16 10:34:19;;;;;;;3.53;2.10;;;34.40;73.00;;;;;;5093697;28;20053;-63
2021/07/16 10:36:49;;;;;;;3.92;1.90;;;34.60;72.40;;;;;;5093776;28;20024;-64
2021/07/16 10:39:37;;;;;;;3.15;1.70;;;34.90;69.30;;;;;;5093345;28;20452;-65
2021/07/16 10:42:25;;;;;;;2.03;1.70;;;34.00;70.60;;;;;;5093868;28;20028;-64
2021/07/16 10:44:52;;;;;;;2.10;1.85;;;32.90;71.30;;;;;;5093374;28;20062;-64
2021/07/16 10:47:34;;;;;;;3.17;1.90;;;32.30;72.50;;;;;;5093478;28;20508;-64
2021/07/16 10:50:01;;;;;;;2.35;2.10;;;31.60;73.60;;;;;;5093281;28;20036;-64
2021/07/16 10:52:46;;;;;;;3.75;2.10;;;31.90;74.40;;;;;;5093495;28;20099;-64
2021/07/16 10:55:13;;;;;;;2.70;2.08;;;31.80;75.10;;;;;;5092926;28;20016;-65
2021/07/16 10:57:43;;;;;;;2.08;1.88;;;31.20;76.40;;;;;;5092424;28;20449;-63
2021/07/16 11:00:13;;;;;;;2.55;2.33;;;31.20;76.50;;;;;;5093129;28;20085;-63
2021/07/16 11:02:46;;;;;;;3.65;2.05;;;30.50;78.10;;;;;;5092888;28;20023;-63
2021/07/16 11:05:36;;;;;;;5.30;2.40;;;29.80;78.30;;;;;;5093472;28;20028;-65
2021/07/16 11:08:06;;;;;;;2.15;1.95;;;30.00;79.10;;;;;;5092801;28;20025;-64
2021/07/16 11:10:50;;;;;;;4.00;1.70;;;30.90;77.50;;;;;;5093074;28;20348;-63
2021/07/16 11:13:31;;;;;;;5.85;2.03;;;31.10;75.20;;;;;;5092826;28;20439;-64
2021/07/16 11:15:57;;;;;;;2.22;2.03;;;31.20;75.60;;;;;;5092984;28;20039;-64
2021/07/16 11:18:28;;;;;;;2.60;2.05;;;30.30;77.10;;;;;;5092575;28;20020;-64
2021/07/16 11:20:57;;;;;;;2.47;1.92;;;29.80;79.00;;;;;;5092705;28;20405;-64
2021/07/16 11:23:50;;;;;;;3.08;2.08;;;29.30;80.10;;;;;;5074273;28;20028;-63
2021/07/16 11:26:17;;;;;;;2.08;1.80;;;28.70;80.90;;;;;;5093302;28;20020;-65
2021/07/16 11:28:43;;;;;;;2.50;2.20;;;28.20;82.20;;;;;;5093380;28;20074;-64
2021/07/16 11:31:09;;;;;;;2.78;2.10;;;27.90;83.60;;;;;;5074626;28;20028;-63
2021/07/16 11:33:35;;;;;;;2.53;1.83;;;27.90;85.00;;;;;;5093064;28;20097;-66
2021/07/16 11:36:01;;;;;;;2.55;2.05;;;27.50;84.90;;;;;;5092851;28;20028;-64
2021/07/16 11:38:27;;;;;;;3.75;2.28;;;27.40;85.00;;;;;;5093138;28;20023;-64
2021/07/16 11:40:53;;;;;;;2.97;2.03;;;27.20;87.30;;;;;;5092922;28;20385;-63
2021/07/16 11:43:19;;;;;;;3.05;2.10;;;27.20;86.10;;;;;;5149602;23;20048;-65
2021/07/16 11:45:44;;;;;;;2.72;2.05;;;27.20;85.60;;;;;;5114035;28;20023;-66
2021/07/16 11:48:17;;;;;;;2.50;1.77;;;27.10;86.20;;;;;;5113979;28;20054;-66
2021/07/16 11:50:46;;;;;;;3.15;1.83;;;26.70;87.20;;;;;;5114048;28;20023;-67
2021/07/16 11:53:13;;;;;;;2.50;1.92;;;26.50;88.20;;;;;;5113772;28;20034;-67
2021/07/16 11:55:40;;;;;;;2.83;1.95;;;26.20;88.80;;;;;;5112515;28;20081;-65
2021/07/16 11:58:06;;;;;;;5.03;2.33;;;26.30;90.20;;;;;;5113790;28;20027;-66
2021/07/16 12:00:39;;;;;;;;;;;26.30;90.40;;;;;;5113956;28;20538;-65
2021/07/16 12:03:12;;;;;;;4.80;3.10;;;26.30;91.30;;;;;;5113150;28;19995;-65
2021/07/16 12:05:53;;;;;;;4.57;2.75;;;26.40;91.90;;;;;;5112056;28;20084;-65
2021/07/16 12:08:20;;;;;;;2.80;1.98;;;26.20;92.30;;;;;;5113958;28;20128;-62
2021/07/16 12:10:45;;;;;;;2.55;1.85;;;26.10;90.90;;;;;;5117530;28;20104;-64
2021/07/16 12:13:11;;;;;;;;;;;25.70;90.90;;;;;;5118109;28;20051;-64
2021/07/16 12:15:37;;;;;;;2.00;1.80;;;25.70;91.10;;;;;;5117653;28;19903;-64
2021/07/16 12:18:03;;;;;;;;;;;25.80;91.30;;;;;;5117232;28;20016;-64
2021/07/16 12:20:34;;;;;;;1.98;1.50;;;25.80;89.90;;;;;;5116828;28;19976;-64
2021/07/16 12:23:05;;;;;;;2.05;1.40;;;25.90;89.00;;;;;;5116590;28;20480;-65
2021/07/16 12:25:31;;;;;;;1.98;1.52;;;25.90;89.60;;;;;;5116949;28;20490;-65
2021/07/16 12:28:20;;;;;;;;;;;26.10;88.80;;;;;;5117087;28;20023;-66
2021/07/16 12:30:47;;;;;;;2.80;1.38;;;26.40;87.20;;;;;;5116924;28;19910;-65
2021/07/16 12:33:13;;;;;;;2.03;1.55;;;26.50;87.00;;;;;;5116526;28;20048;-65
2021/07/16 12:35:44;;;;;;;1.88;1.48;;;26.40;86.60;;;;;;5117382;28;20028;-65
2021/07/16 12:38:15;;;;;;;2.13;1.38;;;26.30;88.10;;;;;;5125771;28;20015;-65
2021/07/16 12:40:46;;;;;;;6.20;1.80;;;26.40;88.90;;;;;;5125728;28;20026;-64
2021/07/16 12:43:19;;;;;;;2.17;1.70;;;26.70;90.00;;;;;;5119276;28;20038;-64
2021/07/16 12:45:52;;;;;;;4.78;1.85;;;26.90;88.90;;;;;;5116376;28;20476;-64
2021/07/16 12:48:29;;;;;;;3.88;2.25;;;26.90;89.40;;;;;;5115075;28;20024;-64
2021/07/16 12:51:14;;;;;;;5.28;2.35;;;26.80;90.40;;;;;;5116399;28;20463;-67